Time;durP1;ratioP1;P1;durP2;ratioP2;P2;SDS_P1;SDS_P2;PMS_P1;PMS_P2;Temp;Humidity;BMP_temperature;BMP_pressure;BME280_temperature;BME280_humidity;BME280_pressure;Samples;Min_cycle;Max_cycle;Signal;HPM_P1;HPM_P2
2023/09/03 00:02:40;;;;;;;9.10;7.35;;;;;;;;;;10256645;28;20049;-71
2023/09/03 00:07:37;;;;;;;8.35;7.55;;;;;;;;;;10253989;28;20489;-72
2023/09/03 00:18:05;;;;;;;9.77;7.97;;;;;;;;;;2745489;26;20041;-73
2023/09/03 00:23:01;;;;;;;9.48;8.32;;;;;;;;;;10162681;28;20046;-73
2023/09/03 00:27:57;;;;;;;13.23;8.70;;;;;;;;;;10183003;28;20498;-73
2023/09/03 00:32:53;;;;;;;10.52;7.65;;;;;;;;;;10175668;28;20067;-74
2023/09/03 00:37:50;;;;;;;7.45;6.70;;;;;;;;;;10161844;28;20042;-72
2023/09/03 00:53:09;;;;;;;11.43;8.23;;;;;;;;;;11121793;22;20041;-72
2023/09/03 00:58:07;;;;;;;14.43;9.80;;;;;;;;;;10259516;28;20504;-72
2023/09/03 01:03:06;;;;;;;10.48;8.75;;;;;;;;;;10226652;28;20525;-71
2023/09/03 01:08:02;;;;;;;11.15;9.52;;;;;;;;;;10209331;28;20146;-72
2023/09/03 01:13:02;;;;;;;11.57;8.68;;;;;;;;;;10210093;28;20140;-72
2023/09/03 01:18:09;;;;;;;17.35;11.38;;;;;;;;;;10213730;28;20068;-72
2023/09/03 01:23:28;;;;;;;16.30;11.63;;;;;;;;;;10218473;28;20053;-72
2023/09/03 01:28:25;;;;;;;14.98;11.05;;;;;;;;;;10203847;28;20081;-72
2023/09/03 01:49:48;;;;;;;11.37;9.97;;;;;;;;;;10495756;22;20116;-71
2023/09/03 01:54:47;;;;;;;11.25;10.15;;;;;;;;;;10254979;28;20448;-72
2023/09/03 01:59:54;;;;;;;13.45;11.15;;;;;;;;;;10253284;28;20046;-72
2023/09/03 02:04:50;;;;;;;12.05;10.18;;;;;;;;;;10243008;28;20053;-72
2023/09/03 02:35:54;;;;;;;16.10;11.07;;;;;;;;;;10319475;22;20413;-73
2023/09/03 02:46:23;;;;;;;12.85;10.10;;;;;;;;;;2606248;26;20045;-72
2023/09/03 03:01:51;;;;;;;13.07;11.25;;;;;;;;;;10213773;28;20049;-72
2023/09/03 03:06:47;;;;;;;12.65;11.45;;;;;;;;;;10209408;28;20085;-73
2023/09/03 03:16:49;;;;;;;13.52;12.18;;;;;;;;;;10281915;23;20075;-73
2023/09/03 03:21:45;;;;;;;14.88;13.13;;;;;;;;;;10249639;28;20508;-73
2023/09/03 03:26:42;;;;;;;13.38;12.18;;;;;;;;;;10228747;28;20087;-73
2023/09/03 03:31:38;;;;;;;14.55;12.20;;;;;;;;;;10241378;28;20115;-73
2023/09/03 03:36:35;;;;;;;17.65;13.23;;;;;;;;;;10242249;28;20045;-73
2023/09/03 03:41:31;;;;;;;13.77;12.48;;;;;;;;;;10236115;28;20716;-73
2023/09/03 03:46:27;;;;;;;15.63;13.93;;;;;;;;;;10229919;28;20508;-73
2023/09/03 03:51:24;;;;;;;14.35;12.85;;;;;;;;;;10222976;28;20053;-73
2023/09/03 03:56:20;;;;;;;13.60;11.95;;;;;;;;;;10224544;28;20462;-73
2023/09/03 04:11:51;;;;;;;13.50;12.03;;;;;;;;;;11263596;22;20054;-73
2023/09/03 04:16:48;;;;;;;13.88;12.05;;;;;;;;;;10145115;28;20046;-72
2023/09/03 04:21:44;;;;;;;13.93;12.60;;;;;;;;;;10322766;22;20140;-73
2023/09/03 04:26:41;;;;;;;14.23;12.88;;;;;;;;;;10299855;28;20049;-72
2023/09/03 04:31:37;;;;;;;14.30;12.48;;;;;;;;;;10285609;28;20524;-73
2023/09/03 04:36:34;;;;;;;14.60;13.05;;;;;;;;;;10253106;28;20053;-72
2023/09/03 04:46:50;;;;;;;14.13;12.60;;;;;;;;;;10255726;28;20036;-72
2023/09/03 04:51:46;;;;;;;15.55;12.60;;;;;;;;;;10260143;28;20461;-73
2023/09/03 04:56:46;;;;;;;14.05;12.32;;;;;;;;;;10250655;28;20053;-73
2023/09/03 05:06:53;;;;;;;12.98;11.68;;;;;;;;;;6228542;22;20037;-73
2023/09/03 05:11:50;;;;;;;13.00;11.80;;;;;;;;;;10721516;22;20054;-73
2023/09/03 05:16:47;;;;;;;12.75;11.43;;;;;;;;;;10240460;28;20045;-73
2023/09/03 05:21:43;;;;;;;12.68;11.35;;;;;;;;;;10217266;28;20476;-73
2023/09/03 05:26:39;;;;;;;12.20;10.98;;;;;;;;;;10204546;28;20053;-73
2023/09/03 05:36:47;;;;;;;12.30;11.10;;;;;;;;;;10631041;22;20041;-73
2023/09/03 05:47:26;;;;;;;12.20;9.63;;;;;;;;;;10315447;22;20160;-73
2023/09/03 05:59:03;;;;;;;10.88;9.48;;;;;;;;;;10048430;29;20243;-73
2023/09/03 06:04:14;;;;;;;11.23;10.05;;;;;;;;;;11267942;22;20056;-73
2023/09/03 06:09:10;;;;;;;10.60;9.68;;;;;;;;;;10238104;28;20128;-73
2023/09/03 06:14:46;;;;;;;10.60;9.38;;;;;;;;;;11311889;22;20061;-73
2023/09/03 06:24:53;;;;;;;11.32;8.45;;;;;;;;;;10286428;22;20516;-73
2023/09/03 06:35:04;;;;;;;9.35;8.50;;;;;;;;;;10344719;23;20041;-73
2023/09/03 06:45:33;;;;;;;8.45;7.13;;;;;;;;;;10198346;23;20894;-73
2023/09/03 07:16:37;;;;;;;5.50;5.00;;;;;;;;;;10159368;22;20605;-73
2023/09/03 07:21:34;;;;;;;6.15;5.53;;;;;;;;;;10264607;28;20122;-73
2023/09/03 07:26:30;;;;;;;5.78;5.35;;;;;;;;;;10246925;28;20050;-73
2023/09/03 07:48:06;;;;;;;6.77;4.50;;;;;;;;;;10333794;22;20559;-73
2023/09/03 08:09:02;;;;;;;6.30;4.90;;;;;;;;;;4147984;26;20072;-73
2023/09/03 08:14:44;;;;;;;9.40;4.82;;;;;;;;;;10290905;23;20041;-73
2023/09/03 08:20:03;;;;;;;5.18;4.68;;;;;;;;;;10223360;28;20520;-74
2023/09/03 08:25:02;;;;;;;7.80;5.63;;;;;;;;;;10260583;28;20041;-74
2023/09/03 08:29:58;;;;;;;6.45;5.00;;;;;;;;;;10263257;28;20456;-73
2023/09/03 08:34:55;;;;;;;5.43;4.93;;;;;;;;;;10269360;28;20098;-73
2023/09/03 08:39:51;;;;;;;9.75;5.55;;;;;;;;;;10270408;28;20045;-73
2023/09/03 08:45:04;;;;;;;7.00;5.50;;;;;;;;;;10266442;28;20095;-73
2023/09/03 08:55:46;;;;;;;5.88;5.22;;;;;;;;;;10195993;28;20071;-73
2023/09/03 09:05:54;;;;;;;7.47;5.55;;;;;;;;;;10503241;22;20045;-73
2023/09/03 09:10:51;;;;;;;5.45;4.95;;;;;;;;;;10634971;22;20053;-73
2023/09/03 09:15:47;;;;;;;5.55;5.10;;;;;;;;;;10174260;28;20041;-73
2023/09/03 09:31:51;;;;;;;6.93;4.90;;;;;;;;;;10214843;28;20049;-73
2023/09/03 09:36:54;;;;;;;8.35;4.97;;;;;;;;;;10228960;28;20045;-73
2023/09/03 09:42:04;;;;;;;6.15;5.03;;;;;;;;;;10204388;28;20051;-72
2023/09/03 09:47:20;;;;;;;5.85;4.95;;;;;;;;;;10207635;28;20137;-73
2023/09/03 09:52:17;;;;;;;5.05;4.50;;;;;;;;;;10195968;28;20054;-72
2023/09/03 09:57:13;;;;;;;5.97;5.18;;;;;;;;;;10202527;28;20141;-72
2023/09/03 10:07:42;;;;;;;5.40;4.90;;;;;;;;;;10303989;22;20048;-72
2023/09/03 10:18:04;;;;;;;6.55;4.97;;;;;;;;;;10452488;22;20085;-73
2023/09/03 10:23:03;;;;;;;6.30;5.10;;;;;;;;;;10247993;28;20053;-72
2023/09/03 10:28:01;;;;;;;5.43;4.93;;;;;;;;;;10249650;28;20045;-72
2023/09/03 10:32:58;;;;;;;5.55;5.03;;;;;;;;;;10253693;28;20110;-72
2023/09/03 10:37:55;;;;;;;5.43;4.93;;;;;;;;;;10257057;28;20057;-72
2023/09/03 10:48:04;;;;;;;6.70;6.00;;;;;;;;;;4287246;22;20070;-72
2023/09/03 11:03:38;;;;;;;6.80;5.13;;;;;;;;;;2636590;26;20052;-73
2023/09/03 11:08:36;;;;;;;9.20;5.38;;;;;;;;;;10254845;28;20566;-73
2023/09/03 11:13:32;;;;;;;5.63;5.10;;;;;;;;;;10363858;23;20084;-73
2023/09/03 11:18:34;;;;;;;;;;;;;;;;;;10189626;28;21270;-72
2023/09/03 11:28:36;;;;;;;6.13;5.53;;;;;;;;;;10317298;22;20083;-73
2023/09/03 11:50:52;;;;;;;8.95;6.13;;;;;;;;;;10237871;28;20496;-73
2023/09/03 11:55:50;;;;;;;5.55;5.05;;;;;;;;;;10271829;28;20160;-73
2023/09/03 12:01:17;;;;;;;8.57;5.35;;;;;;;;;;10365885;22;20052;-73
2023/09/03 12:06:14;;;;;;;8.80;5.43;;;;;;;;;;10208485;28;20060;-73
2023/09/03 12:11:14;;;;;;;5.75;5.25;;;;;;;;;;10240171;28;20052;-73
2023/09/03 12:16:15;;;;;;;6.15;5.28;;;;;;;;;;10234517;28;20045;-73
2023/09/03 12:26:23;;;;;;;6.55;5.57;;;;;;;;;;2920438;26;20062;-72
2023/09/03 12:42:26;;;;;;;6.28;5.47;;;;;;;;;;10256017;23;20060;-73
2023/09/03 12:47:23;;;;;;;5.80;5.28;;;;;;;;;;10290593;28;20051;-74
2023/09/03 12:57:46;;;;;;;7.63;6.85;;;;;;;;;;11640770;22;20424;-74
2023/09/03 13:10:31;;;;;;;6.50;5.90;;;;;;;;;;10035045;28;20464;-74
2023/09/03 13:51:50;;;;;;;10.05;5.28;;;;;;;;;;10222384;28;20871;-74
2023/09/03 13:56:47;;;;;;;6.82;5.30;;;;;;;;;;10226785;28;20139;-73
2023/09/03 14:02:09;;;;;;;5.80;5.20;;;;;;;;;;10343479;22;20568;-74
2023/09/03 15:05:37;;;;;;;10.45;6.25;;;;;;;;;;10255780;28;20049;-73
2023/09/03 15:10:34;;;;;;;5.53;5.03;;;;;;;;;;10243968;28;20143;-72
2023/09/03 15:15:32;;;;;;;7.13;5.40;;;;;;;;;;10251320;28;20504;-72
2023/09/03 15:20:29;;;;;;;5.55;5.05;;;;;;;;;;10260002;28;20052;-73
2023/09/03 15:25:25;;;;;;;7.05;5.40;;;;;;;;;;10258646;28;20096;-72
2023/09/03 15:35:35;;;;;;;5.93;5.33;;;;;;;;;;10297402;23;20057;-72
2023/09/03 15:40:32;;;;;;;8.25;5.47;;;;;;;;;;10202895;28;20065;-72
2023/09/03 15:45:29;;;;;;;8.15;7.35;;;;;;;;;;10196634;28;20450;-72
2023/09/03 15:50:26;;;;;;;6.68;5.20;;;;;;;;;;10273632;23;20069;-72
2023/09/03 15:55:23;;;;;;;5.85;4.85;;;;;;;;;;10320428;28;20045;-73
2023/09/03 16:00:20;;;;;;;6.40;5.53;;;;;;;;;;10311597;28;20052;-73
2023/09/03 16:05:16;;;;;;;5.28;4.60;;;;;;;;;;10309592;28;20055;-73
2023/09/03 16:15:25;;;;;;;6.10;5.28;;;;;;;;;;10303217;22;20678;-72
2023/09/03 16:20:22;;;;;;;6.43;5.40;;;;;;;;;;10227124;28;20112;-73
2023/09/03 16:25:18;;;;;;;6.15;5.32;;;;;;;;;;10193040;28;20061;-73
2023/09/03 17:01:43;;;;;;;6.38;5.82;;;;;;;;;;5897891;22;20044;-73
2023/09/03 17:06:40;;;;;;;6.13;5.53;;;;;;;;;;10289927;28;20041;-73
2023/09/03 17:16:41;;;;;;;6.80;6.10;;;;;;;;;;10578316;22;20073;-73
2023/09/03 17:27:10;;;;;;;8.68;7.85;;;;;;;;;;10249388;28;20052;-73
2023/09/03 17:33:12;;;;;;;;;;;;;;;;;;;;;
2023/09/03 17:38:23;;;;;;;9.27;5.82;;;;;;;;;;10102329;28;20129;-74
2023/09/03 17:43:19;;;;;;;9.07;5.07;;;;;;;;;;10137351;28;20097;-73
2023/09/03 17:48:16;;;;;;;5.95;5.45;;;;;;;;;;10132590;28;20050;-73
2023/09/03 17:53:12;;;;;;;7.13;5.38;;;;;;;;;;10153082;28;20113;-73
2023/09/03 17:58:08;;;;;;;6.50;4.97;;;;;;;;;;10130606;28;20054;-74
2023/09/03 18:23:53;;;;;;;7.15;6.45;;;;;;;;;;9976667;26;20147;-74
2023/09/03 18:28:50;;;;;;;6.80;6.15;;;;;;;;;;10224775;28;20045;-74
2023/09/03 19:57:57;;;;;;;11.13;7.60;;;;;;;;;;10222510;28;20129;-71
2023/09/03 20:02:58;;;;;;;8.88;7.78;;;;;;;;;;10228409;28;20527;-72
2023/09/03 20:07:54;;;;;;;7.75;6.95;;;;;;;;;;10227067;28;20054;-72
2023/09/03 20:12:51;;;;;;;8.75;7.40;;;;;;;;;;10231597;28;20048;-73
2023/09/03 20:17:47;;;;;;;10.30;6.78;;;;;;;;;;10229671;28;20152;-71
2023/09/03 20:22:44;;;;;;;10.60;7.10;;;;;;;;;;10227579;28;20567;-70
2023/09/03 20:27:40;;;;;;;8.70;7.72;;;;;;;;;;10206239;28;20608;-69
2023/09/03 20:32:37;;;;;;;13.57;8.20;;;;;;;;;;10224529;28;20049;-69
2023/09/03 20:37:38;;;;;;;11.07;8.45;;;;;;;;;;10228715;28;20050;-69
2023/09/03 20:42:34;;;;;;;8.17;7.37;;;;;;;;;;10210446;28;20092;-69
2023/09/03 20:47:32;;;;;;;16.88;8.35;;;;;;;;;;10229735;28;20472;-69
2023/09/03 20:52:28;;;;;;;7.75;7.05;;;;;;;;;;10228534;28;20046;-69
2023/09/03 20:57:25;;;;;;;9.18;8.27;;;;;;;;;;10231577;28;20041;-69
2023/09/03 21:02:21;;;;;;;8.82;7.93;;;;;;;;;;10230503;28;20104;-69
2023/09/03 21:07:18;;;;;;;9.48;7.72;;;;;;;;;;10230977;28;20056;-70
2023/09/03 21:12:14;;;;;;;13.48;8.90;;;;;;;;;;10226210;28;20496;-70
2023/09/03 21:17:10;;;;;;;11.18;7.88;;;;;;;;;;10230744;28;20054;-69
2023/09/03 21:22:07;;;;;;;10.32;8.55;;;;;;;;;;10221454;28;20072;-69
2023/09/03 21:27:03;;;;;;;11.80;9.50;;;;;;;;;;10228383;28;20422;-70
2023/09/03 21:31:59;;;;;;;10.15;9.15;;;;;;;;;;10226471;28;20057;-70
2023/09/03 21:36:56;;;;;;;11.23;10.02;;;;;;;;;;10224736;28;20057;-70
2023/09/03 21:41:52;;;;;;;12.05;9.02;;;;;;;;;;10229604;28;20057;-70
2023/09/03 21:46:48;;;;;;;68.32;12.77;;;;;;;;;;10229045;28;20053;-70
2023/09/03 21:51:45;;;;;;;12.98;9.95;;;;;;;;;;10225223;28;20045;-70
2023/09/03 21:56:41;;;;;;;12.05;9.45;;;;;;;;;;10228428;28;20449;-70
2023/09/03 22:01:39;;;;;;;12.30;9.70;;;;;;;;;;10214235;28;21446;-70
2023/09/03 22:06:35;;;;;;;10.80;9.70;;;;;;;;;;10229069;28;20144;-69
2023/09/03 22:11:31;;;;;;;9.95;8.95;;;;;;;;;;10258068;23;20044;-69
2023/09/03 22:16:28;;;;;;;9.77;8.77;;;;;;;;;;10261329;28;20083;-68
2023/09/03 22:21:24;;;;;;;11.25;9.32;;;;;;;;;;10261609;28;20053;-69
2023/09/03 22:26:21;;;;;;;12.32;10.13;;;;;;;;;;10271525;28;20420;-68
2023/09/03 22:31:17;;;;;;;10.57;9.25;;;;;;;;;;10259889;28;20615;-69
2023/09/03 22:36:13;;;;;;;10.80;9.60;;;;;;;;;;10260080;28;20146;-69
2023/09/03 22:41:11;;;;;;;10.52;9.45;;;;;;;;;;10261431;28;20053;-69
2023/09/03 22:46:07;;;;;;;12.23;10.75;;;;;;;;;;10264639;28;20060;-69
2023/09/03 22:51:03;;;;;;;11.60;10.23;;;;;;;;;;10247740;28;20112;-69
2023/09/03 22:56:00;;;;;;;13.98;11.00;;;;;;;;;;10257523;28;20571;-70
2023/09/03 23:00:59;;;;;;;11.13;10.13;;;;;;;;;;10240718;28;20062;-70
2023/09/03 23:05:55;;;;;;;11.85;10.45;;;;;;;;;;10266986;28;20061;-70
2023/09/03 23:10:52;;;;;;;12.20;10.95;;;;;;;;;;10241304;28;20073;-70
2023/09/03 23:15:48;;;;;;;13.68;10.75;;;;;;;;;;10264344;28;20429;-70
2023/09/03 23:20:45;;;;;;;12.18;10.98;;;;;;;;;;10246342;28;20061;-70
2023/09/03 23:25:41;;;;;;;13.15;11.35;;;;;;;;;;10265606;28;20517;-69
2023/09/03 23:30:38;;;;;;;12.02;10.82;;;;;;;;;;10253589;28;20048;-69
2023/09/03 23:35:35;;;;;;;12.30;10.90;;;;;;;;;;10259149;28;20050;-70
2023/09/03 23:40:31;;;;;;;12.48;11.18;;;;;;;;;;10248735;28;20045;-69
2023/09/03 23:45:27;;;;;;;12.50;11.20;;;;;;;;;;10261893;28;20061;-71
2023/09/03 23:50:24;;;;;;;12.57;11.38;;;;;;;;;;10267238;28;20104;-69
2023/09/03 23:55:21;;;;;;;11.88;10.70;;;;;;;;;;10270639;28;20420;-69
